createdAt,value
2023-04-26T00:00:53.574Z,51203.69
2023-04-26T00:03:20.877Z,51195.75
2023-04-26T00:05:49.040Z,51205.69
2023-04-26T00:08:16.267Z,51205.69
2023-04-26T00:10:43.468Z,51225.56
2023-04-26T00:13:11.105Z,51181.81
2023-04-26T00:15:38.305Z,51217.59
2023-04-26T00:18:06.068Z,51209.66
2023-04-26T00:20:33.235Z,51229.53
2023-04-26T00:25:27.394Z,51211.66
2023-04-26T00:27:54.464Z,51237.50
2023-04-26T00:30:22.519Z,51225.56
2023-04-26T00:32:49.945Z,51165.91
2023-04-26T00:35:17.201Z,51219.59
2023-04-26T00:37:44.781Z,51207.66
2023-04-26T00:40:13.065Z,51211.66
2023-04-26T00:42:40.724Z,51213.63
2023-04-26T00:45:08.710Z,51207.66
2023-04-26T00:47:36.504Z,51221.59
2023-04-26T00:50:04.779Z,51221.59
2023-04-26T00:52:32.384Z,51219.59
2023-04-26T00:54:59.491Z,51219.59
2023-04-26T00:57:26.816Z,51241.47
2023-04-26T00:59:53.940Z,51201.72
2023-04-26T01:02:21.703Z,51221.59
2023-04-26T01:04:49.149Z,51221.59
2023-04-26T01:07:17.374Z,51211.66
2023-04-26T01:09:44.788Z,51193.75
2023-04-26T01:12:13.302Z,51217.59
2023-04-26T01:14:41.144Z,51213.63
2023-04-26T01:17:08.374Z,51219.59
2023-04-26T01:19:37.615Z,51217.59
2023-04-26T01:22:05.088Z,51235.50
2023-04-26T01:24:33.494Z,51207.66
2023-04-26T01:27:01.780Z,51229.53
2023-04-26T01:29:29.287Z,51209.66
2023-04-26T01:31:57.267Z,51203.69
2023-04-26T01:34:28.594Z,51217.59
2023-04-26T01:36:55.934Z,51203.69
2023-04-26T01:39:23.285Z,51225.56
2023-04-26T01:41:50.686Z,51239.47
2023-04-26T01:44:17.899Z,51205.69
2023-04-26T01:46:45.128Z,51225.56
2023-04-26T01:49:13.127Z,51221.59
2023-04-26T01:51:40.254Z,51211.66
2023-04-26T01:54:07.797Z,51195.75
2023-04-26T01:56:36.327Z,51177.84
2023-04-26T01:59:03.464Z,51203.69
2023-04-26T02:01:31.521Z,51227.56
2023-04-26T02:03:58.805Z,51219.59
2023-04-26T02:06:26.493Z,51235.50
2023-04-26T02:08:54.330Z,51213.63
2023-04-26T02:11:21.608Z,51203.69
2023-04-26T02:13:48.774Z,51201.72
2023-04-26T02:16:16.981Z,51179.84
2023-04-26T02:18:45.829Z,51207.66
2023-04-26T02:21:12.998Z,51215.63
2023-04-26T02:23:40.113Z,51211.66
2023-04-26T02:26:09.229Z,51205.69
2023-04-26T02:28:36.829Z,51217.59
2023-04-26T02:31:04.105Z,51215.63
2023-04-26T02:33:31.409Z,51241.47
2023-04-26T02:35:59.375Z,51213.63
2023-04-26T02:38:27.400Z,51181.81
2023-04-26T02:41:02.800Z,51209.66
2023-04-26T02:43:31.101Z,51215.63
2023-04-26T02:46:00.958Z,51219.59
2023-04-26T02:48:28.116Z,51201.72
2023-04-26T02:50:55.243Z,51209.66
2023-04-26T02:53:22.362Z,51209.66
2023-04-26T02:55:49.559Z,51235.50
2023-04-26T02:58:17.483Z,51211.66
2023-04-26T03:00:48.482Z,51219.59
2023-04-26T03:03:16.768Z,51209.66
2023-04-26T03:05:46.252Z,51211.66
2023-04-26T03:08:13.590Z,51201.72
2023-04-26T03:10:40.723Z,51203.69
2023-04-26T03:13:08.171Z,51221.59
2023-04-26T03:15:36.087Z,51221.59
2023-04-26T03:18:03.547Z,51207.66
2023-04-26T03:20:31.003Z,51213.63
2023-04-26T03:22:58.241Z,51209.66
2023-04-26T03:25:26.336Z,51223.56
2023-04-26T03:27:54.601Z,51203.69
2023-04-26T03:30:21.950Z,51219.59
2023-04-26T03:32:49.690Z,51207.66
2023-04-26T03:35:17.265Z,51177.84
2023-04-26T03:37:45.122Z,51215.63
2023-04-26T03:40:13.935Z,51199.72
2023-04-26T03:42:40.994Z,51201.72
2023-04-26T03:45:08.801Z,51189.78
2023-04-26T03:47:35.945Z,51207.66
2023-04-26T03:50:03.456Z,51197.72
2023-04-26T03:52:31.017Z,51173.88
2023-04-26T03:54:58.302Z,51213.63
2023-04-26T03:57:25.724Z,51201.72
2023-04-26T03:59:52.853Z,51201.72
2023-04-26T04:02:21.394Z,51201.72
2023-04-26T04:04:48.680Z,51205.69
2023-04-26T04:07:16.631Z,51177.84
2023-04-26T04:09:43.841Z,51223.56
2023-04-26T04:12:10.908Z,51199.72
2023-04-26T04:14:41.893Z,51201.72
2023-04-26T04:17:09.180Z,51159.97
2023-04-26T04:19:37.704Z,51197.72
2023-04-26T04:22:06.203Z,51173.88
2023-04-26T04:24:34.653Z,51221.59
2023-04-26T04:27:01.948Z,51205.69
2023-04-26T04:29:29.797Z,51211.66
2023-04-26T04:31:57.284Z,51195.75
2023-04-26T04:34:24.747Z,51189.78
2023-04-26T04:36:52.084Z,51169.91
2023-04-26T04:39:19.752Z,51207.66
2023-04-26T04:41:52.285Z,51205.69
2023-04-26T04:44:19.899Z,51189.78
2023-04-26T04:46:48.253Z,51225.56
2023-04-26T04:49:16.115Z,51213.63
2023-04-26T04:51:43.488Z,51207.66
2023-04-26T04:54:14.912Z,51201.72
2023-04-26T04:56:43.741Z,51203.69
2023-04-26T04:59:12.897Z,51205.69
2023-04-26T05:01:40.390Z,51199.72
2023-04-26T05:04:12.202Z,51215.63
2023-04-26T05:06:39.620Z,51209.66
2023-04-26T05:09:07.709Z,51221.59
2023-04-26T05:11:36.276Z,51161.94
2023-04-26T05:14:04.743Z,51211.66
2023-04-26T05:16:32.117Z,51185.81
2023-04-26T05:19:01.104Z,51221.59
2023-04-26T05:21:28.721Z,51211.66
2023-04-26T05:23:55.917Z,51203.69
2023-04-26T05:26:23.572Z,51189.78
2023-04-26T05:28:55.234Z,51213.63
2023-04-26T05:31:30.918Z,51191.78
2023-04-26T05:34:30.443Z,51189.78
2023-04-26T05:36:59.191Z,51203.69
2023-04-26T05:39:27.725Z,51205.69
2023-04-26T05:41:54.925Z,51197.72
2023-04-26T05:44:22.313Z,51213.63
2023-04-26T05:46:49.818Z,51185.81
2023-04-26T05:49:16.874Z,51197.72
2023-04-26T05:51:44.666Z,51197.72
2023-04-26T05:54:12.041Z,51203.69
2023-04-26T05:56:40.170Z,51203.69
2023-04-26T05:59:08.542Z,51213.63
2023-04-26T06:01:35.805Z,51217.59
2023-04-26T06:04:03.929Z,51233.50
2023-04-26T06:06:40.859Z,51233.50
2023-04-26T06:09:08.703Z,51205.69
2023-04-26T06:11:37.518Z,51187.78
2023-04-26T06:14:04.822Z,51211.66
2023-04-26T06:16:31.980Z,51229.53
2023-04-26T06:18:59.104Z,51205.69
2023-04-26T06:21:29.601Z,51217.59
2023-04-26T06:23:56.802Z,51221.59
2023-04-26T06:26:27.434Z,51215.63
2023-04-26T06:28:54.516Z,51193.75
2023-04-26T06:31:22.854Z,51193.75
2023-04-26T06:33:50.800Z,51211.66
2023-04-26T06:36:18.463Z,51241.47
2023-04-26T06:38:45.584Z,51201.72
2023-04-26T06:41:13.627Z,51211.66
2023-04-26T06:43:40.709Z,51211.66
2023-04-26T06:46:19.338Z,51249.41
2023-04-26T06:48:56.787Z,51213.63
2023-04-26T06:51:25.440Z,51231.53
2023-04-26T06:53:53.059Z,51233.50
2023-04-26T06:56:20.426Z,51223.56
2023-04-26T06:59:02.017Z,51197.72
2023-04-26T07:01:30.955Z,51213.63
2023-04-26T07:03:58.610Z,51225.56
2023-04-26T07:06:27.056Z,51219.59
2023-04-26T07:08:54.427Z,51221.59
2023-04-26T07:11:23.963Z,51253.41
2023-04-26T07:13:52.985Z,51245.44
2023-04-26T07:16:20.284Z,51253.41
2023-04-26T07:18:48.477Z,51225.56
2023-04-26T07:21:16.350Z,51225.56
2023-04-26T07:23:43.608Z,51231.53
2023-04-26T07:26:13.978Z,51201.72
2023-04-26T07:28:41.102Z,51209.66
2023-04-26T07:31:09.540Z,51221.59
2023-04-26T07:33:38.103Z,51199.72
2023-04-26T07:36:05.877Z,51257.38
2023-04-26T07:38:32.947Z,51209.66
2023-04-26T07:41:01.312Z,51241.47
2023-04-26T07:43:29.913Z,51227.56
2023-04-26T07:46:03.057Z,51209.66
2023-04-26T07:48:30.241Z,51257.38
2023-04-26T07:50:57.406Z,51225.56
2023-04-26T07:53:24.531Z,51225.56
2023-04-26T07:55:52.508Z,51207.66
2023-04-26T07:58:19.965Z,51251.41
2023-04-26T08:00:47.021Z,51227.56
2023-04-26T08:03:18.265Z,51233.50
2023-04-26T08:05:47.091Z,51233.50
2023-04-26T08:08:15.429Z,51231.53
2023-04-26T08:10:43.377Z,51209.66
2023-04-26T08:13:10.632Z,51243.47
2023-04-26T08:15:38.037Z,51203.69
2023-04-26T08:18:05.330Z,51239.47
2023-04-26T08:20:32.861Z,51253.41
2023-04-26T08:23:00.511Z,51263.34
2023-04-26T08:25:28.416Z,51231.53
2023-04-26T08:27:55.585Z,51243.47
2023-04-26T08:30:25.957Z,51229.53
2023-04-26T08:32:53.155Z,51235.50
2023-04-26T08:35:21.696Z,51209.66
2023-04-26T08:37:49.091Z,51219.59
2023-04-26T08:40:25.327Z,51263.34
2023-04-26T08:42:53.758Z,51233.50
2023-04-26T08:45:23.341Z,51211.66
2023-04-26T08:47:53.764Z,51203.69
2023-04-26T08:50:23.722Z,51245.44
2023-04-26T08:52:52.542Z,51215.63
2023-04-26T08:55:21.927Z,51221.59
2023-04-26T08:57:50.730Z,51219.59
2023-04-26T09:00:19.472Z,51221.59
2023-04-26T09:02:50.145Z,51233.50
2023-04-26T09:05:18.191Z,51225.56
2023-04-26T09:07:46.972Z,51229.53
2023-04-26T09:10:21.657Z,51227.56
2023-04-26T09:12:56.013Z,51217.59
2023-04-26T09:15:26.638Z,51249.41
2023-04-26T09:17:54.590Z,51219.59
2023-04-26T09:20:29.228Z,51257.38
2023-04-26T09:23:10.432Z,51241.47
2023-04-26T09:25:38.206Z,51225.56
2023-04-26T09:28:23.747Z,51229.53
2023-04-26T09:30:51.235Z,51239.47
2023-04-26T09:33:19.635Z,51259.34
2023-04-26T09:35:46.866Z,51243.47
2023-04-26T09:38:16.907Z,51243.47
2023-04-26T09:40:50.167Z,51241.47
2023-04-26T09:43:22.494Z,51235.50
2023-04-26T09:45:59.119Z,51243.47
2023-04-26T09:48:30.705Z,51225.56
2023-04-26T09:51:04.018Z,51231.53
2023-04-26T09:53:38.839Z,51237.50
2023-04-26T09:56:20.838Z,51229.53
2023-04-26T09:58:47.803Z,51223.56
2023-04-26T10:01:18.040Z,51255.38
2023-04-26T10:03:46.762Z,51255.38
2023-04-26T10:06:14.377Z,51247.44
2023-04-26T10:08:42.175Z,51235.50
2023-04-26T10:11:13.048Z,51231.53
2023-04-26T10:13:41.689Z,51233.50
2023-04-26T10:16:12.386Z,51241.47
2023-04-26T10:18:39.596Z,51219.59
2023-04-26T10:21:29.726Z,51243.47
2023-04-26T10:23:58.144Z,51233.50
2023-04-26T10:26:56.757Z,51243.47
2023-04-26T10:29:26.070Z,51277.25
2023-04-26T10:32:02.470Z,51245.44
2023-04-26T10:34:31.418Z,51245.44
2023-04-26T10:37:11.952Z,51259.34
2023-04-26T10:39:44.023Z,51201.72
2023-04-26T10:42:32.347Z,51269.31
2023-04-26T10:45:00.596Z,51255.38
2023-04-26T10:47:37.387Z,51261.34
2023-04-26T10:50:11.747Z,51267.31
2023-04-26T10:53:02.018Z,51265.31
2023-04-26T10:55:42.392Z,51273.28
2023-04-26T10:58:33.801Z,51233.50
2023-04-26T11:01:21.541Z,51235.50
2023-04-26T11:03:58.730Z,51269.31
2023-04-26T11:06:29.810Z,51273.28
2023-04-26T11:08:56.852Z,51259.34
2023-04-26T11:11:28.895Z,51267.31
2023-04-26T11:13:56.659Z,51279.25
2023-04-26T11:16:26.836Z,51243.47
2023-04-26T11:18:55.797Z,51259.34
2023-04-26T11:21:22.942Z,51269.31
2023-04-26T11:23:55.275Z,51243.47
2023-04-26T11:26:22.709Z,51281.22
2023-04-26T11:28:49.835Z,51251.41
2023-04-26T11:31:19.528Z,51273.28
2023-04-26T11:33:49.199Z,51271.28
2023-04-26T11:36:19.641Z,51281.22
2023-04-26T11:38:46.871Z,51227.56
2023-04-26T11:41:14.039Z,51237.50
2023-04-26T11:43:41.906Z,51257.38
2023-04-26T11:46:10.156Z,51213.63
2023-04-26T11:48:39.173Z,51239.47
2023-04-26T11:51:08.618Z,51259.34
2023-04-26T11:53:43.273Z,51249.41
2023-04-26T11:56:22.018Z,51233.50
2023-04-26T11:58:52.016Z,51247.44
2023-04-26T12:01:27.784Z,51257.38
2023-04-26T12:03:58.048Z,51247.44
2023-04-26T12:06:45.852Z,51281.22
2023-04-26T12:09:13.641Z,51273.28
2023-04-26T12:11:41.454Z,51279.25
2023-04-26T12:14:10.145Z,51257.38
2023-04-26T12:16:37.898Z,51259.34
2023-04-26T12:19:07.292Z,51251.41
2023-04-26T12:21:44.733Z,51261.34
2023-04-26T12:24:30.526Z,51227.56
2023-04-26T12:26:58.666Z,51257.38
2023-04-26T12:29:28.901Z,51255.38
2023-04-26T12:31:56.781Z,51251.41
2023-04-26T12:34:24.437Z,51265.31
2023-04-26T12:36:51.619Z,51281.22
2023-04-26T12:39:18.879Z,51342.84
2023-04-26T12:41:49.446Z,51297.13
2023-04-26T12:44:17.286Z,51309.06
2023-04-26T12:46:46.249Z,51299.13
2023-04-26T12:49:14.713Z,51295.16
2023-04-26T12:51:41.931Z,51267.31
2023-04-26T12:54:09.265Z,51267.31
2023-04-26T12:56:40.763Z,51287.19
2023-04-26T12:59:07.888Z,51273.28
2023-04-26T13:01:35.148Z,51287.19
2023-04-26T13:04:04.826Z,51285.19
2023-04-26T13:06:32.516Z,51283.22
2023-04-26T13:08:59.922Z,51273.28
2023-04-26T13:11:27.310Z,51297.13
2023-04-26T13:13:54.976Z,51283.22
2023-04-26T13:16:22.167Z,51283.22
2023-04-26T13:18:49.328Z,51291.16
2023-04-26T13:21:16.636Z,51285.19
2023-04-26T13:23:43.876Z,51283.22
2023-04-26T13:26:11.320Z,51324.97
2023-04-26T13:28:38.403Z,51358.75
2023-04-26T13:31:06.560Z,51358.75
2023-04-26T13:33:33.811Z,51334.91
2023-04-26T13:36:01.137Z,51265.31
2023-04-26T13:38:28.666Z,51277.25
2023-04-26T13:40:57.371Z,51293.16
2023-04-26T13:43:27.647Z,51249.41
2023-04-26T13:45:57.650Z,51253.41
2023-04-26T13:48:25.133Z,51257.38
2023-04-26T13:50:52.568Z,51243.47
2023-04-26T13:53:19.975Z,51245.44
2023-04-26T13:55:49.804Z,51265.31
2023-04-26T13:58:17.613Z,51259.34
2023-04-26T14:00:45.062Z,51291.16
2023-04-26T14:03:12.585Z,51279.25
2023-04-26T14:05:39.971Z,51305.09
2023-04-26T14:08:08.299Z,51336.91
2023-04-26T14:10:35.694Z,51303.09
2023-04-26T14:13:03.807Z,51311.06
2023-04-26T14:15:31.420Z,51275.25
2023-04-26T14:17:58.993Z,51301.09
2023-04-26T14:20:26.314Z,51283.22
2023-04-26T14:22:53.541Z,51271.28
2023-04-26T14:25:22.589Z,51227.56
2023-04-26T14:27:51.857Z,51257.38
2023-04-26T14:30:20.954Z,51253.41
2023-04-26T14:32:48.345Z,51299.13
2023-04-26T14:35:15.856Z,51271.28
2023-04-26T14:37:43.038Z,51263.34
2023-04-26T14:40:11.741Z,51287.19
2023-04-26T14:42:45.824Z,51281.22
2023-04-26T14:45:13.598Z,51257.38
2023-04-26T14:47:40.981Z,51279.25
2023-04-26T14:50:10.187Z,51265.31
2023-04-26T14:52:37.557Z,51265.31
2023-04-26T14:55:05.618Z,51265.31
2023-04-26T14:57:35.378Z,51253.41
2023-04-26T15:00:09.315Z,51267.31
2023-04-26T15:02:36.597Z,51257.38
2023-04-26T15:05:03.968Z,51243.47
2023-04-26T15:07:32.882Z,51237.50
2023-04-26T15:10:01.574Z,51247.44
2023-04-26T15:12:29.008Z,51273.28
2023-04-26T15:14:56.262Z,51271.28
2023-04-26T15:17:23.636Z,51263.34
2023-04-26T15:19:51.004Z,51275.25
2023-04-26T15:22:18.244Z,51253.41
2023-04-26T15:24:45.845Z,51255.38
2023-04-26T15:27:12.954Z,51253.41
2023-04-26T15:29:40.127Z,51223.56
2023-04-26T15:32:07.192Z,51247.44
2023-04-26T15:34:40.899Z,51235.50
2023-04-26T15:37:08.033Z,51239.47
2023-04-26T15:39:35.199Z,51277.25
2023-04-26T15:42:02.581Z,51249.41
2023-04-26T15:44:30.782Z,51249.41
2023-04-26T15:46:58.002Z,51251.41
2023-04-26T15:49:25.493Z,51255.38
2023-04-26T15:51:52.546Z,51257.38
2023-04-26T15:54:19.669Z,51271.28
2023-04-26T15:56:47.132Z,51285.19
2023-04-26T15:59:14.808Z,51251.41
2023-04-26T16:01:42.026Z,51235.50
2023-04-26T16:04:10.245Z,51257.38
2023-04-26T16:06:37.921Z,51259.34
2023-04-26T16:09:22.965Z,51253.41
2023-04-26T16:11:51.712Z,51259.34
2023-04-26T16:14:18.739Z,51249.41
2023-04-26T16:16:46.280Z,51235.50
2023-04-26T16:19:13.700Z,51263.34
2023-04-26T16:21:41.183Z,51255.38
2023-04-26T16:24:09.259Z,51267.31
2023-04-26T16:26:36.597Z,51269.31
2023-04-26T16:29:06.863Z,51249.41
2023-04-26T16:31:34.648Z,51249.41
2023-04-26T16:34:03.303Z,51247.44
2023-04-26T16:36:31.627Z,51243.47
2023-04-26T16:38:59.078Z,51233.50
2023-04-26T16:41:27.548Z,51245.44
2023-04-26T16:43:56.026Z,51241.47
2023-04-26T16:46:23.503Z,51231.53
2023-04-26T16:48:51.006Z,51241.47
2023-04-26T16:51:18.082Z,51257.38
2023-04-26T16:53:45.523Z,51265.31
2023-04-26T16:56:12.677Z,51253.41
2023-04-26T16:58:39.800Z,51269.31
2023-04-26T17:01:07.023Z,51233.50
2023-04-26T17:03:34.338Z,51261.34
2023-04-26T17:06:01.721Z,51247.44
2023-04-26T17:08:29.009Z,51253.41
2023-04-26T17:10:56.443Z,51253.41
2023-04-26T17:13:24.269Z,51259.34
2023-04-26T17:15:51.543Z,51241.47
2023-04-26T17:18:18.619Z,51233.50
2023-04-26T17:20:45.907Z,51247.44
2023-04-26T17:23:12.980Z,51249.41
2023-04-26T17:25:40.030Z,51239.47
2023-04-26T17:28:07.184Z,51237.50
2023-04-26T17:30:34.329Z,51225.56
2023-04-26T17:33:01.708Z,51253.41
2023-04-26T17:35:28.849Z,51255.38
2023-04-26T17:37:56.058Z,51257.38
2023-04-26T17:40:23.214Z,51231.53
2023-04-26T17:42:50.328Z,51221.59
2023-04-26T17:45:17.707Z,51275.25
2023-04-26T17:47:46.009Z,51247.44
2023-04-26T17:50:13.480Z,51251.41
2023-04-26T17:52:40.551Z,51247.44
2023-04-26T17:55:10.095Z,51259.34
2023-04-26T17:57:37.793Z,51257.38
2023-04-26T18:00:10.250Z,51249.41
2023-04-26T18:02:38.357Z,51241.47
2023-04-26T18:05:08.599Z,51275.25
2023-04-26T18:07:36.151Z,51249.41
2023-04-26T18:10:04.248Z,51227.56
2023-04-26T18:12:32.099Z,51235.50
2023-04-26T18:14:59.410Z,51265.31
2023-04-26T18:17:26.861Z,51233.50
2023-04-26T18:19:54.094Z,51239.47
2023-04-26T18:22:21.298Z,51235.50
2023-04-26T18:24:48.425Z,51245.44
2023-04-26T18:27:15.611Z,51221.59
2023-04-26T18:29:42.802Z,51253.41
2023-04-26T18:32:09.993Z,51259.34
2023-04-26T18:34:37.162Z,51245.44
2023-04-26T18:37:04.947Z,51241.47
2023-04-26T18:39:32.230Z,51273.28
2023-04-26T18:41:59.472Z,51245.44
2023-04-26T18:44:26.937Z,51253.41
2023-04-26T18:46:55.891Z,51243.47
2023-04-26T18:49:23.914Z,51245.44
2023-04-26T18:51:51.193Z,51237.50
2023-04-26T18:54:18.324Z,51241.47
2023-04-26T18:56:45.652Z,51233.50
2023-04-26T18:59:13.037Z,51237.50
2023-04-26T19:01:41.060Z,51209.66
2023-04-26T19:04:09.279Z,51253.41
2023-04-26T19:06:36.605Z,51229.53
2023-04-26T19:09:06.128Z,51229.53
2023-04-26T19:11:33.228Z,51253.41
2023-04-26T19:14:00.462Z,51249.41
2023-04-26T19:16:27.814Z,51253.41
2023-04-26T19:18:55.225Z,51249.41
2023-04-26T19:21:22.341Z,51221.59
2023-04-26T19:23:49.570Z,51249.41
2023-04-26T19:26:16.738Z,51239.47
2023-04-26T19:28:43.958Z,51239.47
2023-04-26T19:31:11.244Z,51211.66
2023-04-26T19:33:38.466Z,51249.41
2023-04-26T19:36:05.720Z,51247.44
2023-04-26T19:38:33.042Z,51245.44
2023-04-26T19:41:01.338Z,51257.38
2023-04-26T19:43:28.487Z,51255.38
2023-04-26T19:45:55.569Z,51227.56
2023-04-26T19:48:22.696Z,51261.34
2023-04-26T19:50:49.964Z,51241.47
2023-04-26T19:53:17.089Z,51249.41
2023-04-26T19:55:44.195Z,51243.47
2023-04-26T19:58:11.603Z,51219.59
2023-04-26T20:00:40.174Z,51255.38
2023-04-26T20:03:07.764Z,51225.56
2023-04-26T20:05:35.095Z,51231.53
2023-04-26T20:08:02.635Z,51221.59
2023-04-26T20:10:34.452Z,51229.53
2023-04-26T20:13:02.586Z,51237.50
2023-04-26T20:15:32.227Z,51245.44
2023-04-26T20:18:02.257Z,51243.47
2023-04-26T20:20:29.555Z,51255.38
2023-04-26T20:22:56.881Z,51225.56
2023-04-26T20:25:24.014Z,51257.38
2023-04-26T20:27:51.126Z,51245.44
2023-04-26T20:30:18.215Z,51237.50
2023-04-26T20:32:45.500Z,51255.38
2023-04-26T20:35:13.716Z,51229.53
2023-04-26T20:37:40.898Z,51235.50
2023-04-26T20:40:09.304Z,51245.44
2023-04-26T20:42:36.447Z,51225.56
2023-04-26T20:45:04.150Z,51239.47
2023-04-26T20:47:31.351Z,51247.44
2023-04-26T20:49:58.526Z,51235.50
2023-04-26T20:52:26.189Z,51223.56
2023-04-26T20:54:53.164Z,51251.41
2023-04-26T20:57:20.360Z,51225.56
2023-04-26T20:59:47.408Z,51237.50
2023-04-26T21:02:14.612Z,51187.78
2023-04-26T21:04:43.133Z,51231.53
2023-04-26T21:07:11.005Z,51191.78
2023-04-26T21:09:38.933Z,51235.50
2023-04-26T21:12:06.834Z,51217.59
2023-04-26T21:14:34.008Z,51217.59
2023-04-26T21:17:01.506Z,51213.63
2023-04-26T21:19:28.621Z,51201.72
2023-04-26T21:21:55.741Z,51229.53
2023-04-26T21:24:22.914Z,51217.59
2023-04-26T21:26:50.367Z,51245.44
2023-04-26T21:29:17.463Z,51217.59
2023-04-26T21:31:44.636Z,51223.56
2023-04-26T21:34:11.743Z,51227.56
2023-04-26T21:36:38.748Z,51201.72
2023-04-26T21:39:06.100Z,51199.72
2023-04-26T21:41:33.111Z,51183.81
2023-04-26T21:44:00.250Z,51211.66
2023-04-26T21:46:27.397Z,51231.53
2023-04-26T21:48:54.790Z,51249.41
2023-04-26T21:51:22.008Z,51211.66
2023-04-26T21:53:49.175Z,51229.53
2023-04-26T21:56:16.534Z,51203.69
2023-04-26T21:58:43.663Z,51225.56
2023-04-26T22:01:13.467Z,51211.66
2023-04-26T22:03:41.213Z,51207.66
2023-04-26T22:06:09.877Z,51209.66
2023-04-26T22:08:37.000Z,51209.66
2023-04-26T22:11:04.476Z,51197.72
2023-04-26T22:13:32.381Z,51199.72
2023-04-26T22:15:59.608Z,51211.66
2023-04-26T22:18:27.122Z,51213.63
2023-04-26T22:20:54.366Z,51197.72
2023-04-26T22:23:21.488Z,51203.69
2023-04-26T22:25:48.570Z,51173.88
2023-04-26T22:28:16.579Z,51205.69
2023-04-26T22:30:43.733Z,51181.81
2023-04-26T22:33:12.301Z,51193.75
2023-04-26T22:35:39.910Z,51187.78
2023-04-26T22:38:07.048Z,51235.50
2023-04-26T22:40:35.750Z,51205.69
2023-04-26T22:43:03.218Z,51199.72
2023-04-26T22:45:30.300Z,51207.66
2023-04-26T22:47:57.414Z,51231.53
2023-04-26T22:50:24.926Z,51239.47
2023-04-26T22:52:51.960Z,51207.66
2023-04-26T22:55:19.200Z,51205.69
2023-04-26T22:57:46.712Z,51223.56
2023-04-26T23:00:14.786Z,51217.59
2023-04-26T23:02:42.138Z,51197.72
2023-04-26T23:05:10.406Z,51187.78
2023-04-26T23:07:39.223Z,51189.78
2023-04-26T23:10:07.219Z,51175.88
2023-04-26T23:12:34.435Z,51177.84
2023-04-26T23:15:01.992Z,51179.84
2023-04-26T23:17:29.156Z,51211.66
2023-04-26T23:19:56.542Z,51209.66
2023-04-26T23:22:23.759Z,51217.59
2023-04-26T23:24:51.578Z,51217.59
2023-04-26T23:27:21.808Z,51189.78
2023-04-26T23:29:51.082Z,51201.72
2023-04-26T23:32:18.164Z,51207.66
2023-04-26T23:34:45.488Z,51201.72
2023-04-26T23:37:12.611Z,51221.59
2023-04-26T23:39:39.680Z,51177.84
2023-04-26T23:42:07.038Z,51231.53
2023-04-26T23:44:34.369Z,51177.84
2023-04-26T23:47:01.572Z,51187.78
2023-04-26T23:49:28.806Z,51189.78
2023-04-26T23:51:55.939Z,51209.66
2023-04-26T23:54:23.043Z,51221.59
2023-04-26T23:56:50.137Z,51221.59
2023-04-26T23:59:17.244Z,51197.72
